METAR AND TAF INFORMATION
METAR FOR ENSB
ADDS - METARS form results

(1224 UTC 23 January 2019)
Data provider http://aviationweather.gov/metar/data/
 
METAR text: ENSB 231220Z 11004KT 9999 FEW030 M14/M19 Q1028 NOSIG RMK WIND 1400FT VRB02KT
Conditions at: ENSB (SVALBARD/LONGYEA, NO) observed 1220 UTC 23 January 2019
Temperature: -14.0°C ( 7°F)
Dewpoint: -19.0°C (-2°F) [RH = 66%]
Pressure (altimeter): 30.35 inches Hg (1028.0 mb)
Winds: from the ESE (110 degrees) at 5 MPH (4 knots; 2.1 m/s)
Visibility: 6 or more miles (10+ km)
Ceiling: at least 12,000 feet AGL
Clouds: few clouds at 3000 feet AGL
Weather: no significant weather observed at this time

METAR text: ENSB 231150Z 11004KT 9999 FEW030 M15/M17 Q1028 NOSIG RMK WIND 1400FT VRB02KT
Conditions at: ENSB (SVALBARD/LONGYEA, NO) observed 1150 UTC 23 January 2019
Temperature: -15.0°C ( 5°F)
Dewpoint: -17.0°C ( 1°F) [RH = 85%]
Pressure (altimeter): 30.35 inches Hg (1028.0 mb)
Winds: from the ESE (110 degrees) at 5 MPH (4 knots; 2.1 m/s)
Visibility: 6 or more miles (10+ km)
Ceiling: at least 12,000 feet AGL
Clouds: few clouds at 3000 feet AGL
Weather: no significant weather observed at this time

Forecast for: ENSB (SVALBARD/LONGYEA, NO)
Text: TAF ENSB 2312/2412 12006KT 9999 FEW020
Forecast period: 1200 UTC 23 January 2019 to 1200 UTC 24 January 2019
Forecast type: FROM: standard forecast or significant change
Winds: from the ESE (120 degrees) at 7 MPH (6 knots; 3.1 m/s)
Visibility: 6 or more miles 10+ km)
Ceiling: at least 12,000 feet AGL
Clouds: few clouds at 2000 feet AGL
Weather: no significant weather forecast for this period

 AIRPORT MAP

 RUNWAY INFORMATION
Runway 10 Runway length 7608 ft Runway width 148 ft
Runway elevation 63 ft Runway displaced threshold 199 ft Runway heading 105
Runway 28 Runway length 7608 ft Runway width 148 ft
Runway elevation 73 ft Runway displaced threshold 395 ft Runway heading 285

 AIRPORT FREQUENCIES
Type AFIS Name INFO Frequency 118.1 MHZ
Type AFIS Name INFO Frequency 884 MHZ

 AIRPORT NEAR NAVIGATION AIDS



Copyright © 2011 - 2018 BirgenAir Virtual Airlines. All rights reserved. Developed by Goktug Unver